Terminal Aerodrome Forecast
Issued by NWS

Home | Current Version | Previous Version | Text Only | Print | Product List | Glossary Off
Versions: 1 2 3 4 5 6 7 8 9 10 11 12 13 14 15 16

406
FTUS43 KIWX 211120
TAFSBN
TAF
KSBN 211120Z 2112/2212 VRB03KT P6SM SCT100 OVC250
     FM211600 16008KT P6SM SCT040 BKN200
     FM220500 17005KT P6SM VCTS SCT040CB BKN100=

USA.gov is the U.S. government's official web portal to all federal, state and local government web resources and services.